sensor_id;sensor_type;location;lat;lon;timestamp;pressure;altitude;pressure_sealevel;temperature;humidity
9277;BME280;4676;42.678;23.244;2023-11-19T00:01:57;94049.72;;;3.01;100.00
9277;BME280;4676;42.678;23.244;2023-11-19T00:04:24;94049.69;;;3.03;100.00
9277;BME280;4676;42.678;23.244;2023-11-19T00:06:51;94042.91;;;3.11;100.00
9277;BME280;4676;42.678;23.244;2023-11-19T00:09:18;94047.09;;;3.10;100.00
9277;BME280;4676;42.678;23.244;2023-11-19T00:11:44;94038.78;;;3.07;100.00
9277;BME280;4676;42.678;23.244;2023-11-19T00:14:13;94033.09;;;2.94;100.00
9277;BME280;4676;42.678;23.244;2023-11-19T00:16:40;94033.81;;;3.05;100.00
9277;BME280;4676;42.678;23.244;2023-11-19T00:19:06;94048.69;;;3.14;100.00
9277;BME280;4676;42.678;23.244;2023-11-19T00:21:33;94040.41;;;3.11;100.00
9277;BME280;4676;42.678;23.244;2023-11-19T00:24:02;94051.25;;;3.11;100.00
9277;BME280;4676;42.678;23.244;2023-11-19T00:26:29;94044.66;;;3.06;100.00
9277;BME280;4676;42.678;23.244;2023-11-19T00:28:56;94044.75;;;2.98;100.00
9277;BME280;4676;42.678;23.244;2023-11-19T00:31:24;94051.28;;;3.07;100.00
9277;BME280;4676;42.678;23.244;2023-11-19T00:33:51;94046.41;;;2.97;100.00
9277;BME280;4676;42.678;23.244;2023-11-19T00:36:18;94047.13;;;3.09;100.00
9277;BME280;4676;42.678;23.244;2023-11-19T00:38:45;94049.66;;;3.06;100.00
9277;BME280;4676;42.678;23.244;2023-11-19T00:41:11;94063.06;;;3.01;100.00
9277;BME280;4676;42.678;23.244;2023-11-19T00:43:40;94058.13;;;2.95;100.00
9277;BME280;4676;42.678;23.244;2023-11-19T00:46:07;94057.31;;;2.93;100.00
9277;BME280;4676;42.678;23.244;2023-11-19T00:48:37;94063.97;;;2.93;100.00
9277;BME280;4676;42.678;23.244;2023-11-19T00:51:04;94052.34;;;2.92;100.00
9277;BME280;4676;42.678;23.244;2023-11-19T00:53:32;94059.84;;;2.92;100.00
9277;BME280;4676;42.678;23.244;2023-11-19T00:55:59;94058.13;;;2.95;100.00
9277;BME280;4676;42.678;23.244;2023-11-19T00:58:26;94060.69;;;2.91;100.00
9277;BME280;4676;42.678;23.244;2023-11-19T01:00:52;94054.00;;;2.90;100.00
9277;BME280;4676;42.678;23.244;2023-11-19T01:03:19;94048.13;;;2.92;100.00
9277;BME280;4676;42.678;23.244;2023-11-19T01:05:47;94050.63;;;2.92;100.00
9277;BME280;4676;42.678;23.244;2023-11-19T01:08:14;94067.34;;;2.90;100.00
9277;BME280;4676;42.678;23.244;2023-11-19T01:10:41;94054.06;;;2.85;100.00
9277;BME280;4676;42.678;23.244;2023-11-19T01:13:08;94050.78;;;2.79;100.00
9277;BME280;4676;42.678;23.244;2023-11-19T01:15:35;94050.75;;;2.82;100.00
9277;BME280;4676;42.678;23.244;2023-11-19T01:18:02;94050.72;;;2.86;100.00
9277;BME280;4676;42.678;23.244;2023-11-19T01:20:30;94056.59;;;2.84;100.00
9277;BME280;4676;42.678;23.244;2023-11-19T01:22:58;94043.25;;;2.82;100.00
9277;BME280;4676;42.678;23.244;2023-11-19T01:25:25;94050.72;;;2.88;100.00
9277;BME280;4676;42.678;23.244;2023-11-19T01:27:51;94055.72;;;2.86;100.00
9277;BME280;4676;42.678;23.244;2023-11-19T01:30:18;94059.16;;;2.78;100.00
9277;BME280;4676;42.678;23.244;2023-11-19T01:32:45;94055.00;;;2.77;100.00
9277;BME280;4676;42.678;23.244;2023-11-19T01:35:11;94061.72;;;2.73;100.00
9277;BME280;4676;42.678;23.244;2023-11-19T01:37:38;94065.09;;;2.68;100.00
9277;BME280;4676;42.678;23.244;2023-11-19T01:40:07;94080.97;;;2.67;100.00
9277;BME280;4676;42.678;23.244;2023-11-19T01:42:36;94072.63;;;2.65;100.00
9277;BME280;4676;42.678;23.244;2023-11-19T01:45:04;94080.09;;;2.68;100.00
9277;BME280;4676;42.678;23.244;2023-11-19T01:47:33;94086.78;;;2.69;100.00
9277;BME280;4676;42.678;23.244;2023-11-19T01:50:01;94089.34;;;2.63;100.00
9277;BME280;4676;42.678;23.244;2023-11-19T01:52:32;94085.06;;;2.72;100.00
9277;BME280;4676;42.678;23.244;2023-11-19T01:55:01;94093.41;;;2.71;100.00
9277;BME280;4676;42.678;23.244;2023-11-19T01:57:30;94098.41;;;2.73;100.00
9277;BME280;4676;42.678;23.244;2023-11-19T01:59:56;94099.22;;;2.75;100.00
9277;BME280;4676;42.678;23.244;2023-11-19T02:02:23;94101.72;;;2.76;100.00
9277;BME280;4676;42.678;23.244;2023-11-19T02:04:52;94096.59;;;2.85;100.00
9277;BME280;4676;42.678;23.244;2023-11-19T02:07:19;94086.59;;;2.85;100.00
9277;BME280;4676;42.678;23.244;2023-11-19T02:09:46;94090.75;;;2.86;100.00
9277;BME280;4676;42.678;23.244;2023-11-19T02:12:13;94083.19;;;2.91;100.00
9277;BME280;4676;42.678;23.244;2023-11-19T02:14:41;94082.28;;;2.96;100.00
9277;BME280;4676;42.678;23.244;2023-11-19T02:17:25;94089.09;;;2.87;100.00
9277;BME280;4676;42.678;23.244;2023-11-19T02:19:52;94090.72;;;2.91;100.00
9277;BME280;4676;42.678;23.244;2023-11-19T02:22:19;94086.47;;;2.97;100.00
9277;BME280;4676;42.678;23.244;2023-11-19T02:24:47;94079.06;;;2.88;100.00
9277;BME280;4676;42.678;23.244;2023-11-19T02:27:21;94090.63;;;2.97;100.00
9277;BME280;4676;42.678;23.244;2023-11-19T02:29:53;94077.28;;;2.98;100.00
9277;BME280;4676;42.678;23.244;2023-11-19T02:32:19;94073.94;;;2.96;100.00
9277;BME280;4676;42.678;23.244;2023-11-19T02:34:46;94062.44;;;2.84;100.00
9277;BME280;4676;42.678;23.244;2023-11-19T02:37:13;94062.47;;;2.78;100.00
9277;BME280;4676;42.678;23.244;2023-11-19T02:39:40;94066.69;;;2.75;100.00
9277;BME280;4676;42.678;23.244;2023-11-19T02:42:07;94053.41;;;2.70;100.00
9277;BME280;4676;42.678;23.244;2023-11-19T02:44:35;94066.88;;;2.58;100.00
9277;BME280;4676;42.678;23.244;2023-11-19T02:47:05;94075.22;;;2.60;100.00
9277;BME280;4676;42.678;23.244;2023-11-19T02:49:33;94078.53;;;2.58;100.00
9277;BME280;4676;42.678;23.244;2023-11-19T02:52:00;94088.50;;;2.61;100.00
9277;BME280;4676;42.678;23.244;2023-11-19T02:54:26;94079.41;;;2.53;100.00
9277;BME280;4676;42.678;23.244;2023-11-19T02:56:53;94076.97;;;2.49;100.00
9277;BME280;4676;42.678;23.244;2023-11-19T02:59:25;94075.22;;;2.57;100.00
9277;BME280;4676;42.678;23.244;2023-11-19T03:01:53;94079.34;;;2.61;100.00
9277;BME280;4676;42.678;23.244;2023-11-19T03:04:21;94070.22;;;2.59;100.00
9277;BME280;4676;42.678;23.244;2023-11-19T03:06:48;94074.41;;;2.55;100.00
9277;BME280;4676;42.678;23.244;2023-11-19T03:09:15;94078.47;;;2.67;100.00
9277;BME280;4676;42.678;23.244;2023-11-19T03:11:41;94091.81;;;2.67;100.00
9277;BME280;4676;42.678;23.244;2023-11-19T03:14:08;94108.44;;;2.68;100.00
9277;BME280;4676;42.678;23.244;2023-11-19T03:16:35;94103.44;;;2.70;100.00
9277;BME280;4676;42.678;23.244;2023-11-19T03:19:01;94100.13;;;2.69;100.00
9277;BME280;4676;42.678;23.244;2023-11-19T03:21:31;94085.97;;;2.67;100.00
9277;BME280;4676;42.678;23.244;2023-11-19T03:23:58;94100.06;;;2.74;100.00
9277;BME280;4676;42.678;23.244;2023-11-19T03:26:26;94101.03;;;2.64;100.00
9277;BME280;4676;42.678;23.244;2023-11-19T03:28:52;94093.41;;;2.73;100.00
9277;BME280;4676;42.678;23.244;2023-11-19T03:31:20;94099.31;;;2.67;100.00
9277;BME280;4676;42.678;23.244;2023-11-19T03:33:46;94104.22;;;2.75;100.00
9277;BME280;4676;42.678;23.244;2023-11-19T03:36:13;94096.72;;;2.75;100.00
9277;BME280;4676;42.678;23.244;2023-11-19T03:38:41;94100.81;;;2.82;100.00
9277;BME280;4676;42.678;23.244;2023-11-19T03:41:11;94106.69;;;2.81;100.00
9277;BME280;4676;42.678;23.244;2023-11-19T03:43:38;94105.03;;;2.75;100.00
9277;BME280;4676;42.678;23.244;2023-11-19T03:46:05;94118.44;;;2.74;100.00
9277;BME280;4676;42.678;23.244;2023-11-19T03:48:41;94124.22;;;2.75;100.00
9277;BME280;4676;42.678;23.244;2023-11-19T03:51:08;94127.53;;;2.78;100.00
9277;BME280;4676;42.678;23.244;2023-11-19T03:53:35;94137.59;;;2.72;100.00
9277;BME280;4676;42.678;23.244;2023-11-19T03:56:04;94127.66;;;2.66;100.00
9277;BME280;4676;42.678;23.244;2023-11-19T03:58:30;94123.50;;;2.67;100.00
9277;BME280;4676;42.678;23.244;2023-11-19T04:00:58;94125.16;;;2.65;100.00
9277;BME280;4676;42.678;23.244;2023-11-19T04:03:25;94131.06;;;2.59;100.00
9277;BME280;4676;42.678;23.244;2023-11-19T04:05:52;94127.69;;;2.62;100.00
9277;BME280;4676;42.678;23.244;2023-11-19T04:08:19;94133.47;;;2.68;100.00
9277;BME280;4676;42.678;23.244;2023-11-19T04:10:46;94151.06;;;2.64;100.00
9277;BME280;4676;42.678;23.244;2023-11-19T04:13:14;94153.53;;;2.67;100.00
9277;BME280;4676;42.678;23.244;2023-11-19T04:15:42;94151.84;;;2.67;100.00
9277;BME280;4676;42.678;23.244;2023-11-19T04:18:09;94162.63;;;2.74;100.00
9277;BME280;4676;42.678;23.244;2023-11-19T04:20:36;94152.56;;;2.78;100.00
9277;BME280;4676;42.678;23.244;2023-11-19T04:23:03;94151.66;;;2.85;100.00
9277;BME280;4676;42.678;23.244;2023-11-19T04:25:29;94143.31;;;2.88;100.00
9277;BME280;4676;42.678;23.244;2023-11-19T04:27:56;94154.03;;;2.96;100.00
9277;BME280;4676;42.678;23.244;2023-11-19T04:30:24;94160.75;;;2.94;100.00
9277;BME280;4676;42.678;23.244;2023-11-19T04:32:51;94159.13;;;2.91;100.00
9277;BME280;4676;42.678;23.244;2023-11-19T04:35:21;94158.25;;;2.92;100.00
9277;BME280;4676;42.678;23.244;2023-11-19T04:37:48;94163.25;;;2.92;100.00
9277;BME280;4676;42.678;23.244;2023-11-19T04:40:15;94152.44;;;2.92;100.00
9277;BME280;4676;42.678;23.244;2023-11-19T04:42:43;94160.78;;;2.91;100.00
9277;BME280;4676;42.678;23.244;2023-11-19T04:45:10;94145.00;;;2.83;100.00
9277;BME280;4676;42.678;23.244;2023-11-19T04:47:38;94146.69;;;2.84;100.00
9277;BME280;4676;42.678;23.244;2023-11-19T04:50:06;94144.09;;;2.91;100.00
9277;BME280;4676;42.678;23.244;2023-11-19T04:52:37;94154.88;;;2.96;100.00
9277;BME280;4676;42.678;23.244;2023-11-19T04:55:06;94144.06;;;2.93;100.00
9277;BME280;4676;42.678;23.244;2023-11-19T04:57:32;94135.81;;;2.86;100.00
9277;BME280;4676;42.678;23.244;2023-11-19T04:59:59;94150.06;;;2.80;100.00
9277;BME280;4676;42.678;23.244;2023-11-19T05:02:26;94151.75;;;2.78;100.00
9277;BME280;4676;42.678;23.244;2023-11-19T05:04:54;94165.09;;;2.77;100.00
9277;BME280;4676;42.678;23.244;2023-11-19T05:07:20;94177.56;;;2.80;100.00
9277;BME280;4676;42.678;23.244;2023-11-19T05:09:47;94185.19;;;2.71;100.00
9277;BME280;4676;42.678;23.244;2023-11-19T05:12:14;94186.81;;;2.73;100.00
9277;BME280;4676;42.678;23.244;2023-11-19T05:14:41;94178.00;;;3.20;100.00
9277;BME280;4676;42.678;23.244;2023-11-19T05:17:13;94180.16;;;3.48;100.00
9277;BME280;4676;42.678;23.244;2023-11-19T05:19:40;94177.44;;;3.68;100.00
9277;BME280;4676;42.678;23.244;2023-11-19T05:22:08;94145.09;;;3.48;100.00
9277;BME280;4676;42.678;23.244;2023-11-19T05:24:35;94176.19;;;3.32;100.00
9277;BME280;4676;42.678;23.244;2023-11-19T05:27:02;94187.09;;;3.28;100.00
9277;BME280;4676;42.678;23.244;2023-11-19T05:29:29;94174.69;;;3.19;100.00
9277;BME280;4676;42.678;23.244;2023-11-19T05:31:55;94181.47;;;3.10;100.00
9277;BME280;4676;42.678;23.244;2023-11-19T05:34:22;94184.81;;;3.07;100.00
9277;BME280;4676;42.678;23.244;2023-11-19T05:36:50;94191.59;;;2.99;100.00
9277;BME280;4676;42.678;23.244;2023-11-19T05:39:18;94181.56;;;2.97;100.00
9277;BME280;4676;42.678;23.244;2023-11-19T05:41:45;94185.03;;;2.84;100.00
9277;BME280;4676;42.678;23.244;2023-11-19T05:44:12;94183.41;;;2.80;100.00
9277;BME280;4676;42.678;23.244;2023-11-19T05:46:38;94189.25;;;2.79;100.00
9277;BME280;4676;42.678;23.244;2023-11-19T05:49:08;94200.16;;;2.74;100.00
9277;BME280;4676;42.678;23.244;2023-11-19T05:51:36;94184.41;;;2.63;100.00
9277;BME280;4676;42.678;23.244;2023-11-19T05:54:04;94190.28;;;2.57;100.00
9277;BME280;4676;42.678;23.244;2023-11-19T05:56:34;94196.16;;;2.53;100.00
9277;BME280;4676;42.678;23.244;2023-11-19T05:59:01;94189.50;;;2.52;100.00
9277;BME280;4676;42.678;23.244;2023-11-19T06:01:32;94193.66;;;2.53;100.00
9277;BME280;4676;42.678;23.244;2023-11-19T06:03:58;94205.34;;;2.53;100.00
9277;BME280;4676;42.678;23.244;2023-11-19T06:06:26;94211.16;;;2.55;100.00
9277;BME280;4676;42.678;23.244;2023-11-19T06:08:53;94216.19;;;2.53;100.00
9277;BME280;4676;42.678;23.244;2023-11-19T06:11:20;94219.47;;;2.57;100.00
9277;BME280;4676;42.678;23.244;2023-11-19T06:13:48;94217.88;;;2.48;100.00
9277;BME280;4676;42.678;23.244;2023-11-19T06:16:16;94210.34;;;2.53;100.00
9277;BME280;4676;42.678;23.244;2023-11-19T06:18:43;94202.03;;;2.49;100.00
9277;BME280;4676;42.678;23.244;2023-11-19T06:21:10;94154.72;;;2.23;100.00
9277;BME280;4676;42.678;23.244;2023-11-19T06:23:37;94213.53;;;2.68;100.00
9277;BME280;4676;42.678;23.244;2023-11-19T06:26:04;94211.09;;;2.64;100.00
9277;BME280;4676;42.678;23.244;2023-11-19T06:28:31;94217.69;;;2.69;100.00
9277;BME280;4676;42.678;23.244;2023-11-19T06:30:59;94224.44;;;2.63;100.00
9277;BME280;4676;42.678;23.244;2023-11-19T06:33:26;94216.94;;;2.58;100.00
9277;BME280;4676;42.678;23.244;2023-11-19T06:35:52;94216.97;;;2.53;100.00
9277;BME280;4676;42.678;23.244;2023-11-19T06:38:20;94223.69;;;2.53;100.00
9277;BME280;4676;42.678;23.244;2023-11-19T06:40:46;94228.69;;;2.53;100.00
9277;BME280;4676;42.678;23.244;2023-11-19T06:43:13;94225.38;;;2.49;100.00
9277;BME280;4676;42.678;23.244;2023-11-19T06:45:40;94230.50;;;2.30;100.00
9277;BME280;4676;42.678;23.244;2023-11-19T06:48:09;94229.75;;;2.16;100.00
9277;BME280;4676;42.678;23.244;2023-11-19T06:50:35;94229.72;;;2.20;100.00
9277;BME280;4676;42.678;23.244;2023-11-19T06:53:02;94222.28;;;2.13;100.00
9277;BME280;4676;42.678;23.244;2023-11-19T06:55:30;94219.75;;;2.17;100.00
9277;BME280;4676;42.678;23.244;2023-11-19T06:57:59;94220.53;;;2.24;100.00
9277;BME280;4676;42.678;23.244;2023-11-19T07:00:27;94227.13;;;2.32;100.00
9277;BME280;4676;42.678;23.244;2023-11-19T07:02:54;94226.28;;;2.38;100.00
9277;BME280;4676;42.678;23.244;2023-11-19T07:05:22;94232.03;;;2.47;100.00
9277;BME280;4676;42.678;23.244;2023-11-19T07:07:49;94221.19;;;2.47;100.00
9277;BME280;4676;42.678;23.244;2023-11-19T07:10:16;94242.91;;;2.45;100.00
9277;BME280;4676;42.678;23.244;2023-11-19T07:12:43;94240.41;;;2.45;100.00
9277;BME280;4676;42.678;23.244;2023-11-19T07:15:10;94242.94;;;2.42;100.00
9277;BME280;4676;42.678;23.244;2023-11-19T07:17:38;94240.47;;;2.33;100.00
9277;BME280;4676;42.678;23.244;2023-11-19T07:20:06;94237.16;;;2.29;100.00
9277;BME280;4676;42.678;23.244;2023-11-19T07:22:34;94235.47;;;2.33;100.00
9277;BME280;4676;42.678;23.244;2023-11-19T07:25:00;94247.97;;;2.33;100.00
9277;BME280;4676;42.678;23.244;2023-11-19T07:27:27;94229.72;;;2.23;100.00
9277;BME280;4676;42.678;23.244;2023-11-19T07:29:54;94228.88;;;2.23;100.00
9277;BME280;4676;42.678;23.244;2023-11-19T07:32:21;94248.06;;;2.21;100.00
9277;BME280;4676;42.678;23.244;2023-11-19T07:34:48;94263.84;;;2.32;100.00
9277;BME280;4676;42.678;23.244;2023-11-19T07:37:14;94243.81;;;2.35;100.00
9277;BME280;4676;42.678;23.244;2023-11-19T07:39:43;94239.63;;;2.38;100.00
9277;BME280;4676;42.678;23.244;2023-11-19T07:42:10;94242.13;;;2.37;100.00
9277;BME280;4676;42.678;23.244;2023-11-19T07:44:37;94261.25;;;2.39;100.00
9277;BME280;4676;42.678;23.244;2023-11-19T07:47:03;94252.94;;;2.42;100.00
9277;BME280;4676;42.678;23.244;2023-11-19T07:49:30;94238.84;;;2.32;100.00
9277;BME280;4676;42.678;23.244;2023-11-19T07:51:57;94252.06;;;2.43;100.00
9277;BME280;4676;42.678;23.244;2023-11-19T07:54:24;94266.25;;;2.45;100.00
9277;BME280;4676;42.678;23.244;2023-11-19T07:56:52;94265.44;;;2.36;100.00
9277;BME280;4676;42.678;23.244;2023-11-19T07:59:18;94249.63;;;2.37;100.00
9277;BME280;4676;42.678;23.244;2023-11-19T08:01:45;94257.09;;;2.40;100.00
9277;BME280;4676;42.678;23.244;2023-11-19T08:04:12;94270.44;;;2.42;100.00
9277;BME280;4676;42.678;23.244;2023-11-19T08:06:39;94285.47;;;2.37;100.00
9277;BME280;4676;42.678;23.244;2023-11-19T08:09:06;94280.47;;;2.39;100.00
9277;BME280;4676;42.678;23.244;2023-11-19T08:11:39;94278.81;;;2.35;100.00
9277;BME280;4676;42.678;23.244;2023-11-19T08:14:07;94286.31;;;2.33;100.00
9277;BME280;4676;42.678;23.244;2023-11-19T08:16:33;94288.81;;;2.35;100.00
9277;BME280;4676;42.678;23.244;2023-11-19T08:19:00;94295.47;;;2.37;100.00
9277;BME280;4676;42.678;23.244;2023-11-19T08:21:27;94287.94;;;2.40;100.00
9277;BME280;4676;42.678;23.244;2023-11-19T08:23:54;94288.84;;;2.30;100.00
9277;BME280;4676;42.678;23.244;2023-11-19T08:26:20;94287.13;;;2.37;100.00
9277;BME280;4676;42.678;23.244;2023-11-19T08:28:47;94287.09;;;2.43;100.00
9277;BME280;4676;42.678;23.244;2023-11-19T08:31:15;94285.47;;;2.37;100.00
9277;BME280;4676;42.678;23.244;2023-11-19T08:33:42;94282.16;;;2.32;100.00
9277;BME280;4676;42.678;23.244;2023-11-19T08:36:09;94286.34;;;2.29;100.00
9277;BME280;4676;42.678;23.244;2023-11-19T08:38:41;94295.50;;;2.31;100.00
9277;BME280;4676;42.678;23.244;2023-11-19T08:41:07;94303.78;;;2.41;100.00
9277;BME280;4676;42.678;23.244;2023-11-19T08:43:35;94295.41;;;2.49;100.00
9277;BME280;4676;42.678;23.244;2023-11-19T08:46:02;94298.72;;;2.53;100.00
9277;BME280;4676;42.678;23.244;2023-11-19T08:48:31;94292.81;;;2.62;100.00
9277;BME280;4676;42.678;23.244;2023-11-19T08:50:57;94294.38;;;2.76;100.00
9277;BME280;4676;42.678;23.244;2023-11-19T08:53:24;94284.44;;;2.67;100.00
9277;BME280;4676;42.678;23.244;2023-11-19T08:55:51;94298.53;;;2.79;100.00
9277;BME280;4676;42.678;23.244;2023-11-19T08:58:17;94304.34;;;2.79;100.00
9277;BME280;4676;42.678;23.244;2023-11-19T09:00:44;94301.88;;;2.75;100.00
9277;BME280;4676;42.678;23.244;2023-11-19T09:03:11;94291.06;;;2.73;100.00
9277;BME280;4676;42.678;23.244;2023-11-19T09:05:39;94287.66;;;2.84;100.00
9277;BME280;4676;42.678;23.244;2023-11-19T09:08:06;94298.44;;;2.89;100.00
9277;BME280;4676;42.678;23.244;2023-11-19T09:10:33;94291.63;;;3.07;100.00
9277;BME280;4676;42.678;23.244;2023-11-19T09:13:00;94280.72;;;3.15;100.00
9277;BME280;4676;42.678;23.244;2023-11-19T09:15:27;94281.47;;;3.23;100.00
9277;BME280;4676;42.678;23.244;2023-11-19T09:17:54;94277.31;;;3.21;100.00
9277;BME280;4676;42.678;23.244;2023-11-19T09:20:22;94278.19;;;3.17;100.00
9277;BME280;4676;42.678;23.244;2023-11-19T09:22:50;94288.25;;;3.12;100.00
9277;BME280;4676;42.678;23.244;2023-11-19T09:25:17;94299.00;;;3.23;100.00
9277;BME280;4676;42.678;23.244;2023-11-19T09:27:44;94286.53;;;3.17;100.00
9277;BME280;4676;42.678;23.244;2023-11-19T09:30:12;94284.88;;;3.15;100.00
9277;BME280;4676;42.678;23.244;2023-11-19T09:32:38;94295.88;;;2.98;100.00
9277;BME280;4676;42.678;23.244;2023-11-19T09:35:06;94286.72;;;2.99;100.00
9277;BME280;4676;42.678;23.244;2023-11-19T09:37:33;94274.13;;;3.03;100.00
9277;BME280;4676;42.678;23.244;2023-11-19T09:40:01;94265.69;;;3.14;100.00
9277;BME280;4676;42.678;23.244;2023-11-19T09:42:30;94271.38;;;3.34;100.00
9277;BME280;4676;42.678;23.244;2023-11-19T09:45:03;94262.91;;;3.42;100.00
9277;BME280;4676;42.678;23.244;2023-11-19T09:47:35;94264.66;;;3.34;100.00
9277;BME280;4676;42.678;23.244;2023-11-19T09:50:02;94239.94;;;2.99;100.00
9277;BME280;4676;42.678;23.244;2023-11-19T09:52:30;94227.34;;;3.12;100.00
9277;BME280;4676;42.678;23.244;2023-11-19T09:54:57;94219.78;;;3.15;100.00
9277;BME280;4676;42.678;23.244;2023-11-19T09:57:25;94226.28;;;3.31;100.00
9277;BME280;4676;42.678;23.244;2023-11-19T09:59:53;94224.47;;;3.46;100.00
9277;BME280;4676;42.678;23.244;2023-11-19T10:02:21;94207.75;;;3.47;100.00
9277;BME280;4676;42.678;23.244;2023-11-19T10:04:48;94226.81;;;3.62;100.00
9277;BME280;4676;42.678;23.244;2023-11-19T10:07:16;94234.34;;;3.59;100.00
9277;BME280;4676;42.678;23.244;2023-11-19T10:09:43;94229.34;;;3.59;100.00
9277;BME280;4676;42.678;23.244;2023-11-19T10:12:10;94227.13;;;3.33;100.00
9277;BME280;4676;42.678;23.244;2023-11-19T10:14:38;94226.28;;;3.34;100.00
9277;BME280;4676;42.678;23.244;2023-11-19T10:17:07;94239.50;;;3.48;100.00
9277;BME280;4676;42.678;23.244;2023-11-19T10:19:34;94240.16;;;3.62;100.00
9277;BME280;4676;42.678;23.244;2023-11-19T10:22:04;94222.53;;;3.68;100.00
9277;BME280;4676;42.678;23.244;2023-11-19T10:24:31;94250.59;;;3.94;100.00
9277;BME280;4676;42.678;23.244;2023-11-19T10:26:59;94236.47;;;3.90;100.00
9277;BME280;4676;42.678;23.244;2023-11-19T10:29:26;94231.38;;;3.96;100.00
9277;BME280;4676;42.678;23.244;2023-11-19T10:31:58;94219.88;;;3.80;100.00
9277;BME280;4676;42.678;23.244;2023-11-19T10:34:26;94219.91;;;3.77;100.00
9277;BME280;4676;42.678;23.244;2023-11-19T10:36:53;94219.03;;;3.81;100.00
9277;BME280;4676;42.678;23.244;2023-11-19T10:39:20;94217.38;;;3.80;100.00
9277;BME280;4676;42.678;23.244;2023-11-19T10:47:43;94146.22;;;3.25;100.00
9277;BME280;4676;42.678;23.244;2023-11-19T10:50:10;94198.31;;;3.67;100.00
9277;BME280;4676;42.678;23.244;2023-11-19T10:52:41;94214.66;;;3.95;100.00
9277;BME280;4676;42.678;23.244;2023-11-19T10:57:59;94223.03;;;3.97;100.00
9277;BME280;4676;42.678;23.244;2023-11-19T11:00:26;94204.78;;;3.86;100.00
9277;BME280;4676;42.678;23.244;2023-11-19T11:02:58;94204.44;;;4.11;100.00
9277;BME280;4676;42.678;23.244;2023-11-19T11:05:26;94205.72;;;4.37;100.00
9277;BME280;4676;42.678;23.244;2023-11-19T11:07:55;94181.84;;;4.67;100.00
9277;BME280;4676;42.678;23.244;2023-11-19T11:10:25;94181.38;;;4.96;99.66
9277;BME280;4676;42.678;23.244;2023-11-19T11:12:52;94160.88;;;4.71;97.94
9277;BME280;4676;42.678;23.244;2023-11-19T11:15:24;94176.34;;;4.96;97.72
9277;BME280;4676;42.678;23.244;2023-11-19T11:17:56;94168.88;;;4.91;94.16
9277;BME280;4676;42.678;23.244;2023-11-19T11:20:25;94170.09;;;4.71;96.51
9277;BME280;4676;42.678;23.244;2023-11-19T11:23:01;94168.59;;;4.58;94.25
9277;BME280;4676;42.678;23.244;2023-11-19T11:25:39;94178.81;;;4.48;94.06
9277;BME280;4676;42.678;23.244;2023-11-19T11:28:31;94166.41;;;4.39;97.13
9277;BME280;4676;42.678;23.244;2023-11-19T11:31:18;94168.59;;;4.58;97.01
9277;BME280;4676;42.678;23.244;2023-11-19T11:34:19;94167.81;;;4.57;95.64
9277;BME280;4676;42.678;23.244;2023-11-19T11:36:58;94162.78;;;4.57;94.92
9277;BME280;4676;42.678;23.244;2023-11-19T11:39:29;94160.91;;;4.68;92.88
9277;BME280;4676;42.678;23.244;2023-11-19T11:42:31;94149.84;;;4.80;92.66
9277;BME280;4676;42.678;23.244;2023-11-19T11:44:58;94140.78;;;4.71;91.56
9277;BME280;4676;42.678;23.244;2023-11-19T11:50:34;94147.19;;;4.87;88.73
9277;BME280;4676;42.678;23.244;2023-11-19T11:53:16;94133.50;;;5.03;90.65
9277;BME280;4676;42.678;23.244;2023-11-19T11:55:53;94137.47;;;5.17;86.91
9277;BME280;4676;42.678;23.244;2023-11-19T11:58:25;94143.31;;;5.16;85.48
9277;BME280;4676;42.678;23.244;2023-11-19T12:00:52;94119.19;;;5.09;84.40
9277;BME280;4676;42.678;23.244;2023-11-19T12:03:21;94132.19;;;5.29;84.67
9277;BME280;4676;42.678;23.244;2023-11-19T12:05:49;94128.31;;;5.13;82.09
9277;BME280;4676;42.678;23.244;2023-11-19T12:08:19;94131.47;;;5.24;84.80
9277;BME280;4676;42.678;23.244;2023-11-19T12:10:48;94137.13;;;5.33;80.88
9277;BME280;4676;42.678;23.244;2023-11-19T12:13:16;94120.38;;;5.32;82.60
9277;BME280;4676;42.678;23.244;2023-11-19T12:16:08;94121.84;;;5.42;80.50
9277;BME280;4676;42.678;23.244;2023-11-19T12:18:39;94126.81;;;5.45;81.58
9277;BME280;4676;42.678;23.244;2023-11-19T12:21:07;94116.88;;;5.41;79.52
9277;BME280;4676;42.678;23.244;2023-11-19T12:23:44;94111.94;;;5.36;80.27
9277;BME280;4676;42.678;23.244;2023-11-19T12:26:21;94102.72;;;5.37;78.96
9277;BME280;4676;42.678;23.244;2023-11-19T12:29:00;94093.66;;;5.30;78.04
9277;BME280;4676;42.678;23.244;2023-11-19T12:31:29;94072.84;;;5.23;79.09
9277;BME280;4676;42.678;23.244;2023-11-19T12:33:58;94093.44;;;5.39;79.09
9277;BME280;4676;42.678;23.244;2023-11-19T12:36:25;94091.06;;;5.33;78.30
9277;BME280;4676;42.678;23.244;2023-11-19T12:38:52;94089.13;;;5.45;78.87
9277;BME280;4676;42.678;23.244;2023-11-19T12:41:19;94092.41;;;5.49;79.20
9277;BME280;4676;42.678;23.244;2023-11-19T12:43:49;94094.06;;;5.50;78.23
9277;BME280;4676;42.678;23.244;2023-11-19T12:46:20;94075.00;;;5.41;78.82
9277;BME280;4676;42.678;23.244;2023-11-19T12:48:47;94089.66;;;5.60;79.29
9277;BME280;4676;42.678;23.244;2023-11-19T12:51:15;94082.25;;;5.53;76.78
9277;BME280;4676;42.678;23.244;2023-11-19T12:53:49;94081.34;;;5.56;80.27
9277;BME280;4676;42.678;23.244;2023-11-19T12:56:18;94078.97;;;5.50;76.89
9277;BME280;4676;42.678;23.244;2023-11-19T12:58:45;94082.34;;;5.49;77.81
9277;BME280;4676;42.678;23.244;2023-11-19T13:01:16;94069.81;;;5.47;78.27
9277;BME280;4676;42.678;23.244;2023-11-19T13:03:43;94075.53;;;5.54;79.12
9277;BME280;4676;42.678;23.244;2023-11-19T13:06:10;94068.22;;;5.83;87.96
9277;BME280;4676;42.678;23.244;2023-11-19T13:08:39;94074.72;;;5.93;76.97
9277;BME280;4676;42.678;23.244;2023-11-19T13:11:07;94076.31;;;5.97;74.17
9277;BME280;4676;42.678;23.244;2023-11-19T13:13:55;94074.63;;;5.96;72.40
9277;BME280;4676;42.678;23.244;2023-11-19T13:16:22;94082.09;;;6.01;73.50
9277;BME280;4676;42.678;23.244;2023-11-19T13:18:49;94072.09;;;5.98;72.47
9277;BME280;4676;42.678;23.244;2023-11-19T13:21:17;94063.81;;;5.93;75.83
9277;BME280;4676;42.678;23.244;2023-11-19T13:23:45;94066.94;;;6.02;71.92
9277;BME280;4676;42.678;23.244;2023-11-19T13:26:12;94055.25;;;6.01;74.58
9277;BME280;4676;42.678;23.244;2023-11-19T13:28:38;94055.38;;;5.95;71.42
9277;BME280;4676;42.678;23.244;2023-11-19T13:31:05;94050.97;;;6.05;71.42